sensor_id;sensor_type;location;lat;lon;timestamp;temperature;humidity
63771;DHT22;60282;43.862;18.430;2023-09-19T00:00:22;19.70;99.90
63771;DHT22;60282;43.862;18.430;2023-09-19T00:02:57;22.80;99.90
63771;DHT22;60282;43.862;18.430;2023-09-19T00:05:25;19.70;99.90
63771;DHT22;60282;43.862;18.430;2023-09-19T00:07:54;19.60;99.90
63771;DHT22;60282;43.862;18.430;2023-09-19T00:10:25;19.60;99.90
63771;DHT22;60282;43.862;18.430;2023-09-19T00:12:59;19.60;99.90
63771;DHT22;60282;43.862;18.430;2023-09-19T00:15:28;19.70;99.90
63771;DHT22;60282;43.862;18.430;2023-09-19T00:17:55;19.70;99.90
63771;DHT22;60282;43.862;18.430;2023-09-19T00:20:21;16.80;99.90
63771;DHT22;60282;43.862;18.430;2023-09-19T00:22:49;19.60;99.90
63771;DHT22;60282;43.862;18.430;2023-09-19T00:25:20;19.70;99.90
63771;DHT22;60282;43.862;18.430;2023-09-19T00:27:47;19.60;99.90
63771;DHT22;60282;43.862;18.430;2023-09-19T00:30:16;19.60;99.90
63771;DHT22;60282;43.862;18.430;2023-09-19T00:32:47;19.70;99.90
63771;DHT22;60282;43.862;18.430;2023-09-19T00:35:14;19.70;99.90
63771;DHT22;60282;43.862;18.430;2023-09-19T00:37:43;19.70;99.90
63771;DHT22;60282;43.862;18.430;2023-09-19T00:40:10;19.70;99.90
63771;DHT22;60282;43.862;18.430;2023-09-19T00:42:41;19.70;99.90
63771;DHT22;60282;43.862;18.430;2023-09-19T00:45:11;19.70;99.90
63771;DHT22;60282;43.862;18.430;2023-09-19T00:47:49;19.70;99.90
63771;DHT22;60282;43.862;18.430;2023-09-19T00:50:20;19.60;99.90
63771;DHT22;60282;43.862;18.430;2023-09-19T00:52:48;19.60;99.90
63771;DHT22;60282;43.862;18.430;2023-09-19T00:55:16;19.60;99.90
63771;DHT22;60282;43.862;18.430;2023-09-19T00:57:45;19.60;99.90
63771;DHT22;60282;43.862;18.430;2023-09-19T01:00:12;19.60;99.90
63771;DHT22;60282;43.862;18.430;2023-09-19T01:02:42;19.60;99.90
63771;DHT22;60282;43.862;18.430;2023-09-19T01:05:11;19.60;99.90
63771;DHT22;60282;43.862;18.430;2023-09-19T01:07:40;19.70;99.90
63771;DHT22;60282;43.862;18.430;2023-09-19T01:10:12;19.60;99.90
63771;DHT22;60282;43.862;18.430;2023-09-19T01:18:13;19.70;99.90
63771;DHT22;60282;43.862;18.430;2023-09-19T01:20:53;19.70;99.90
63771;DHT22;60282;43.862;18.430;2023-09-19T01:32:05;19.80;99.90
63771;DHT22;60282;43.862;18.430;2023-09-19T01:34:51;19.80;99.90
63771;DHT22;60282;43.862;18.430;2023-09-19T01:37:19;19.80;99.90
63771;DHT22;60282;43.862;18.430;2023-09-19T01:39:51;19.80;99.90
63771;DHT22;60282;43.862;18.430;2023-09-19T01:47:52;19.80;99.90
63771;DHT22;60282;43.862;18.430;2023-09-19T01:53:36;19.80;99.90
63771;DHT22;60282;43.862;18.430;2023-09-19T01:56:08;19.50;99.90
63771;DHT22;60282;43.862;18.430;2023-09-19T01:58:42;19.80;99.90
63771;DHT22;60282;43.862;18.430;2023-09-19T02:01:13;19.80;99.90
63771;DHT22;60282;43.862;18.430;2023-09-19T02:03:41;19.80;99.90
63771;DHT22;60282;43.862;18.430;2023-09-19T02:06:17;19.70;99.90
63771;DHT22;60282;43.862;18.430;2023-09-19T02:08:45;19.60;99.90
63771;DHT22;60282;43.862;18.430;2023-09-19T02:11:13;19.60;99.90
63771;DHT22;60282;43.862;18.430;2023-09-19T02:13:39;19.60;99.90
63771;DHT22;60282;43.862;18.430;2023-09-19T02:16:06;19.60;99.90
63771;DHT22;60282;43.862;18.430;2023-09-19T02:18:33;19.80;99.90
63771;DHT22;60282;43.862;18.430;2023-09-19T02:21:02;19.60;99.90
63771;DHT22;60282;43.862;18.430;2023-09-19T02:23:30;19.60;99.90
63771;DHT22;60282;43.862;18.430;2023-09-19T02:25:56;19.60;99.90
63771;DHT22;60282;43.862;18.430;2023-09-19T02:28:29;19.60;99.90
63771;DHT22;60282;43.862;18.430;2023-09-19T02:30:58;19.60;99.90
63771;DHT22;60282;43.862;18.430;2023-09-19T02:33:24;19.60;99.90
63771;DHT22;60282;43.862;18.430;2023-09-19T02:36:00;19.60;99.90
63771;DHT22;60282;43.862;18.430;2023-09-19T02:38:28;19.50;99.90
63771;DHT22;60282;43.862;18.430;2023-09-19T02:40:56;19.60;99.90
63771;DHT22;60282;43.862;18.430;2023-09-19T02:43:22;19.60;99.90
63771;DHT22;60282;43.862;18.430;2023-09-19T02:45:49;19.50;99.90
63771;DHT22;60282;43.862;18.430;2023-09-19T02:48:22;19.50;99.90
63771;DHT22;60282;43.862;18.430;2023-09-19T02:50:52;19.50;99.90
63771;DHT22;60282;43.862;18.430;2023-09-19T02:53:17;19.50;99.90
63771;DHT22;60282;43.862;18.430;2023-09-19T02:55:44;19.50;99.90
63771;DHT22;60282;43.862;18.430;2023-09-19T02:58:10;19.40;99.90
63771;DHT22;60282;43.862;18.430;2023-09-19T03:00:37;19.40;99.90
63771;DHT22;60282;43.862;18.430;2023-09-19T03:03:03;19.30;99.90
63771;DHT22;60282;43.862;18.430;2023-09-19T03:05:31;19.00;99.90
63771;DHT22;60282;43.862;18.430;2023-09-19T03:07:57;19.20;99.90
63771;DHT22;60282;43.862;18.430;2023-09-19T03:10:26;19.20;99.90
63771;DHT22;60282;43.862;18.430;2023-09-19T03:12:52;19.20;99.90
63771;DHT22;60282;43.862;18.430;2023-09-19T03:15:18;19.20;99.90
63771;DHT22;60282;43.862;18.430;2023-09-19T03:17:45;19.20;99.90
63771;DHT22;60282;43.862;18.430;2023-09-19T03:20:11;19.30;99.90
63771;DHT22;60282;43.862;18.430;2023-09-19T03:22:39;19.20;99.90
63771;DHT22;60282;43.862;18.430;2023-09-19T03:25:08;19.20;99.90
63771;DHT22;60282;43.862;18.430;2023-09-19T03:27:34;19.20;99.90
63771;DHT22;60282;43.862;18.430;2023-09-19T03:30:01;19.10;99.90
63771;DHT22;60282;43.862;18.430;2023-09-19T03:32:31;19.10;99.90
63771;DHT22;60282;43.862;18.430;2023-09-19T03:34:58;18.70;99.90
63771;DHT22;60282;43.862;18.430;2023-09-19T03:37:24;19.10;99.90
63771;DHT22;60282;43.862;18.430;2023-09-19T03:39:51;19.00;99.90
63771;DHT22;60282;43.862;18.430;2023-09-19T03:42:17;19.10;99.90
63771;DHT22;60282;43.862;18.430;2023-09-19T03:44:43;19.00;99.90
63771;DHT22;60282;43.862;18.430;2023-09-19T03:47:08;19.00;99.90
63771;DHT22;60282;43.862;18.430;2023-09-19T03:49:34;18.90;99.90
63771;DHT22;60282;43.862;18.430;2023-09-19T03:52:00;18.90;99.90
63771;DHT22;60282;43.862;18.430;2023-09-19T03:54:26;18.90;99.90
63771;DHT22;60282;43.862;18.430;2023-09-19T03:56:52;18.90;99.90
63771;DHT22;60282;43.862;18.430;2023-09-19T03:59:18;18.80;99.90
63771;DHT22;60282;43.862;18.430;2023-09-19T04:01:45;18.80;99.90
63771;DHT22;60282;43.862;18.430;2023-09-19T04:04:11;18.80;99.90
63771;DHT22;60282;43.862;18.430;2023-09-19T04:06:39;18.80;99.90
63771;DHT22;60282;43.862;18.430;2023-09-19T04:09:05;18.80;99.90
63771;DHT22;60282;43.862;18.430;2023-09-19T04:11:33;18.80;99.90
63771;DHT22;60282;43.862;18.430;2023-09-19T04:13:59;18.80;99.90
63771;DHT22;60282;43.862;18.430;2023-09-19T04:16:25;18.80;99.90
63771;DHT22;60282;43.862;18.430;2023-09-19T04:18:51;18.70;99.90
63771;DHT22;60282;43.862;18.430;2023-09-19T04:21:16;18.70;99.90
63771;DHT22;60282;43.862;18.430;2023-09-19T04:23:42;18.70;99.90
63771;DHT22;60282;43.862;18.430;2023-09-19T04:26:08;18.70;99.90
63771;DHT22;60282;43.862;18.430;2023-09-19T04:28:34;18.80;99.90
63771;DHT22;60282;43.862;18.430;2023-09-19T04:31:03;18.80;99.90
63771;DHT22;60282;43.862;18.430;2023-09-19T04:33:28;18.70;99.90
63771;DHT22;60282;43.862;18.430;2023-09-19T04:35:54;18.70;99.90
63771;DHT22;60282;43.862;18.430;2023-09-19T04:38:21;18.70;99.90
63771;DHT22;60282;43.862;18.430;2023-09-19T04:40:48;18.70;99.90
63771;DHT22;60282;43.862;18.430;2023-09-19T04:43:14;18.60;99.90
63771;DHT22;60282;43.862;18.430;2023-09-19T04:45:41;18.60;99.90
63771;DHT22;60282;43.862;18.430;2023-09-19T04:48:06;18.60;99.90
63771;DHT22;60282;43.862;18.430;2023-09-19T04:50:34;18.50;99.90
63771;DHT22;60282;43.862;18.430;2023-09-19T04:53:01;18.60;99.90
63771;DHT22;60282;43.862;18.430;2023-09-19T04:55:27;19.10;99.90
63771;DHT22;60282;43.862;18.430;2023-09-19T04:57:53;18.70;99.90
63771;DHT22;60282;43.862;18.430;2023-09-19T05:00:20;18.80;99.90
63771;DHT22;60282;43.862;18.430;2023-09-19T05:02:50;18.80;99.90
63771;DHT22;60282;43.862;18.430;2023-09-19T05:05:19;18.80;99.90
63771;DHT22;60282;43.862;18.430;2023-09-19T05:07:46;18.80;99.90
63771;DHT22;60282;43.862;18.430;2023-09-19T05:10:12;18.80;99.90
63771;DHT22;60282;43.862;18.430;2023-09-19T05:12:42;18.90;99.90
63771;DHT22;60282;43.862;18.430;2023-09-19T05:15:10;18.90;99.90
63771;DHT22;60282;43.862;18.430;2023-09-19T05:17:36;18.60;99.90
63771;DHT22;60282;43.862;18.430;2023-09-19T05:20:03;19.00;99.90
63771;DHT22;60282;43.862;18.430;2023-09-19T05:23:02;19.20;99.90
63771;DHT22;60282;43.862;18.430;2023-09-19T05:25:30;19.20;99.90
63771;DHT22;60282;43.862;18.430;2023-09-19T05:28:00;19.30;99.90
63771;DHT22;60282;43.862;18.430;2023-09-19T05:30:29;19.40;99.90
63771;DHT22;60282;43.862;18.430;2023-09-19T05:32:55;19.40;99.90
63771;DHT22;60282;43.862;18.430;2023-09-19T05:35:22;19.50;99.90
63771;DHT22;60282;43.862;18.430;2023-09-19T05:37:50;19.60;99.90
63771;DHT22;60282;43.862;18.430;2023-09-19T05:40:20;19.60;99.90
63771;DHT22;60282;43.862;18.430;2023-09-19T05:42:46;19.70;99.90
63771;DHT22;60282;43.862;18.430;2023-09-19T05:45:13;19.80;99.90
63771;DHT22;60282;43.862;18.430;2023-09-19T05:47:40;20.60;99.90
63771;DHT22;60282;43.862;18.430;2023-09-19T05:50:07;19.90;99.90
63771;DHT22;60282;43.862;18.430;2023-09-19T05:52:37;18.20;99.90
63771;DHT22;60282;43.862;18.430;2023-09-19T05:55:04;20.00;99.90
63771;DHT22;60282;43.862;18.430;2023-09-19T05:57:32;20.00;99.90
63771;DHT22;60282;43.862;18.430;2023-09-19T05:59:58;19.90;99.90
63771;DHT22;60282;43.862;18.430;2023-09-19T06:02:24;19.90;99.90
63771;DHT22;60282;43.862;18.430;2023-09-19T06:04:52;19.90;99.90
63771;DHT22;60282;43.862;18.430;2023-09-19T06:07:23;19.80;99.90
63771;DHT22;60282;43.862;18.430;2023-09-19T06:09:52;19.90;99.90
63771;DHT22;60282;43.862;18.430;2023-09-19T06:12:21;20.00;99.90
63771;DHT22;60282;43.862;18.430;2023-09-19T06:14:47;20.00;99.90
63771;DHT22;60282;43.862;18.430;2023-09-19T06:17:14;20.00;99.90
63771;DHT22;60282;43.862;18.430;2023-09-19T06:19:40;20.00;99.90
63771;DHT22;60282;43.862;18.430;2023-09-19T06:22:15;20.10;99.90
63771;DHT22;60282;43.862;18.430;2023-09-19T06:24:44;20.20;99.90
63771;DHT22;60282;43.862;18.430;2023-09-19T06:27:10;20.20;99.90
63771;DHT22;60282;43.862;18.430;2023-09-19T06:29:36;20.30;99.90
63771;DHT22;60282;43.862;18.430;2023-09-19T06:32:09;21.60;99.90
63771;DHT22;60282;43.862;18.430;2023-09-19T06:34:36;20.50;99.90
63771;DHT22;60282;43.862;18.430;2023-09-19T06:37:03;20.70;99.90
63771;DHT22;60282;43.862;18.430;2023-09-19T06:39:28;20.70;99.90
63771;DHT22;60282;43.862;18.430;2023-09-19T06:41:54;20.90;99.90
63771;DHT22;60282;43.862;18.430;2023-09-19T06:44:21;21.00;99.90
63771;DHT22;60282;43.862;18.430;2023-09-19T06:46:50;21.10;99.90
63771;DHT22;60282;43.862;18.430;2023-09-19T06:49:17;21.20;99.90
63771;DHT22;60282;43.862;18.430;2023-09-19T06:54:10;21.50;99.90
63771;DHT22;60282;43.862;18.430;2023-09-19T06:56:36;21.70;99.90
63771;DHT22;60282;43.862;18.430;2023-09-19T06:59:02;21.90;99.90
63771;DHT22;60282;43.862;18.430;2023-09-19T07:01:29;22.20;99.90
63771;DHT22;60282;43.862;18.430;2023-09-19T07:03:55;22.40;99.90
63771;DHT22;60282;43.862;18.430;2023-09-19T07:06:21;22.60;99.90
63771;DHT22;60282;43.862;18.430;2023-09-19T07:08:46;22.70;99.90
63771;DHT22;60282;43.862;18.430;2023-09-19T07:11:12;23.00;99.90
63771;DHT22;60282;43.862;18.430;2023-09-19T07:13:39;23.20;99.90
63771;DHT22;60282;43.862;18.430;2023-09-19T07:16:04;23.50;99.90
63771;DHT22;60282;43.862;18.430;2023-09-19T07:18:31;23.70;99.90
63771;DHT22;60282;43.862;18.430;2023-09-19T07:20:59;23.90;99.90
63771;DHT22;60282;43.862;18.430;2023-09-19T07:23:31;24.10;99.90
63771;DHT22;60282;43.862;18.430;2023-09-19T07:26:01;24.40;99.90
63771;DHT22;60282;43.862;18.430;2023-09-19T07:28:27;24.50;99.90
63771;DHT22;60282;43.862;18.430;2023-09-19T07:30:53;24.50;99.90
63771;DHT22;60282;43.862;18.430;2023-09-19T07:33:19;24.60;99.90
63771;DHT22;60282;43.862;18.430;2023-09-19T07:35:46;24.70;99.90
63771;DHT22;60282;43.862;18.430;2023-09-19T07:38:13;24.80;99.90
63771;DHT22;60282;43.862;18.430;2023-09-19T07:40:39;25.00;99.90
63771;DHT22;60282;43.862;18.430;2023-09-19T07:43:05;25.20;99.90
63771;DHT22;60282;43.862;18.430;2023-09-19T07:45:34;25.30;99.90
63771;DHT22;60282;43.862;18.430;2023-09-19T07:48:05;25.40;99.90
63771;DHT22;60282;43.862;18.430;2023-09-19T07:50:39;25.40;99.90
63771;DHT22;60282;43.862;18.430;2023-09-19T07:53:06;25.50;99.90
63771;DHT22;60282;43.862;18.430;2023-09-19T07:55:32;25.50;99.90
63771;DHT22;60282;43.862;18.430;2023-09-19T07:57:59;25.60;99.90
63771;DHT22;60282;43.862;18.430;2023-09-19T08:00:28;25.50;99.90
63771;DHT22;60282;43.862;18.430;2023-09-19T08:02:54;25.70;99.90
63771;DHT22;60282;43.862;18.430;2023-09-19T08:05:20;25.70;99.90
63771;DHT22;60282;43.862;18.430;2023-09-19T08:07:46;25.80;99.90
63771;DHT22;60282;43.862;18.430;2023-09-19T08:10:15;26.00;99.90
63771;DHT22;60282;43.862;18.430;2023-09-19T08:12:43;26.00;99.90
63771;DHT22;60282;43.862;18.430;2023-09-19T08:15:16;26.10;99.90
63771;DHT22;60282;43.862;18.430;2023-09-19T08:17:42;26.20;99.90
63771;DHT22;60282;43.862;18.430;2023-09-19T08:20:10;26.20;99.90
63771;DHT22;60282;43.862;18.430;2023-09-19T08:22:50;26.30;99.90
63771;DHT22;60282;43.862;18.430;2023-09-19T08:25:23;26.30;99.90
63771;DHT22;60282;43.862;18.430;2023-09-19T08:27:51;26.20;99.90
63771;DHT22;60282;43.862;18.430;2023-09-19T08:30:21;26.40;99.90
63771;DHT22;60282;43.862;18.430;2023-09-19T08:33:01;26.60;99.90
63771;DHT22;60282;43.862;18.430;2023-09-19T08:35:30;26.60;99.90
63771;DHT22;60282;43.862;18.430;2023-09-19T08:37:56;26.80;99.90
63771;DHT22;60282;43.862;18.430;2023-09-19T08:40:22;27.60;99.90
63771;DHT22;60282;43.862;18.430;2023-09-19T08:42:53;27.00;99.90
63771;DHT22;60282;43.862;18.430;2023-09-19T08:45:23;27.00;99.90
63771;DHT22;60282;43.862;18.430;2023-09-19T08:50:57;27.20;99.90
63771;DHT22;60282;43.862;18.430;2023-09-19T08:56:29;27.60;99.90
63771;DHT22;60282;43.862;18.430;2023-09-19T08:59:02;27.60;99.90
63771;DHT22;60282;43.862;18.430;2023-09-19T09:01:28;27.60;99.90
63771;DHT22;60282;43.862;18.430;2023-09-19T09:03:55;27.70;99.90
63771;DHT22;60282;43.862;18.430;2023-09-19T09:06:23;27.90;99.30
63771;DHT22;60282;43.862;18.430;2023-09-19T09:08:52;28.00;99.70
63771;DHT22;60282;43.862;18.430;2023-09-19T09:11:19;27.90;99.80
63771;DHT22;60282;43.862;18.430;2023-09-19T09:13:45;28.10;99.70
63771;DHT22;60282;43.862;18.430;2023-09-19T09:16:12;28.10;99.30
63771;DHT22;60282;43.862;18.430;2023-09-19T09:18:39;28.00;99.60
63771;DHT22;60282;43.862;18.430;2023-09-19T09:21:05;27.90;99.60
63771;DHT22;60282;43.862;18.430;2023-09-19T09:23:32;28.10;99.90
63771;DHT22;60282;43.862;18.430;2023-09-19T09:26:01;28.10;99.40
63771;DHT22;60282;43.862;18.430;2023-09-19T09:28:32;28.10;99.30
63771;DHT22;60282;43.862;18.430;2023-09-19T09:31:00;28.00;99.30
63771;DHT22;60282;43.862;18.430;2023-09-19T09:33:34;28.00;99.30
63771;DHT22;60282;43.862;18.430;2023-09-19T09:36:01;27.90;99.80
63771;DHT22;60282;43.862;18.430;2023-09-19T09:38:45;28.00;99.70
63771;DHT22;60282;43.862;18.430;2023-09-19T09:41:11;28.10;99.10
63771;DHT22;60282;43.862;18.430;2023-09-19T09:43:42;28.60;99.00
63771;DHT22;60282;43.862;18.430;2023-09-19T09:46:18;28.50;98.30
63771;DHT22;60282;43.862;18.430;2023-09-19T09:49:22;28.60;98.10
63771;DHT22;60282;43.862;18.430;2023-09-19T09:52:07;28.90;97.80
63771;DHT22;60282;43.862;18.430;2023-09-19T09:55:02;28.70;97.90
63771;DHT22;60282;43.862;18.430;2023-09-19T09:57:34;28.80;97.50
63771;DHT22;60282;43.862;18.430;2023-09-19T10:00:01;29.00;97.30
63771;DHT22;60282;43.862;18.430;2023-09-19T10:02:39;28.80;96.40
63771;DHT22;60282;43.862;18.430;2023-09-19T10:05:17;29.00;96.00
63771;DHT22;60282;43.862;18.430;2023-09-19T10:07:49;27.60;94.60
63771;DHT22;60282;43.862;18.430;2023-09-19T10:13:20;29.60;94.90
63771;DHT22;60282;43.862;18.430;2023-09-19T10:15:51;29.70;95.50
63771;DHT22;60282;43.862;18.430;2023-09-19T10:18:22;29.80;94.50
63771;DHT22;60282;43.862;18.430;2023-09-19T10:20:48;29.80;94.00
63771;DHT22;60282;43.862;18.430;2023-09-19T10:23:18;29.70;94.50
63771;DHT22;60282;43.862;18.430;2023-09-19T10:25:56;27.30;93.40
63771;DHT22;60282;43.862;18.430;2023-09-19T10:28:23;30.00;94.40
63771;DHT22;60282;43.862;18.430;2023-09-19T10:30:53;30.20;94.50
63771;DHT22;60282;43.862;18.430;2023-09-19T10:33:21;33.50;95.60
63771;DHT22;60282;43.862;18.430;2023-09-19T10:35:51;30.80;94.00
63771;DHT22;60282;43.862;18.430;2023-09-19T10:38:23;30.80;92.60
63771;DHT22;60282;43.862;18.430;2023-09-19T10:40:51;30.80;92.00
63771;DHT22;60282;43.862;18.430;2023-09-19T10:43:19;30.80;91.30
63771;DHT22;60282;43.862;18.430;2023-09-19T10:45:50;30.60;91.00
63771;DHT22;60282;43.862;18.430;2023-09-19T10:48:21;29.80;90.00
63771;DHT22;60282;43.862;18.430;2023-09-19T10:51:07;30.40;90.20
63771;DHT22;60282;43.862;18.430;2023-09-19T10:54:02;30.30;90.40
63771;DHT22;60282;43.862;18.430;2023-09-19T10:56:38;33.20;91.00
63771;DHT22;60282;43.862;18.430;2023-09-19T10:59:09;30.70;89.80
63771;DHT22;60282;43.862;18.430;2023-09-19T11:01:45;31.00;89.90
63771;DHT22;60282;43.862;18.430;2023-09-19T11:04:29;31.10;89.40
63771;DHT22;60282;43.862;18.430;2023-09-19T11:07:12;31.20;89.60
63771;DHT22;60282;43.862;18.430;2023-09-19T11:09:53;29.40;87.10
63771;DHT22;60282;43.862;18.430;2023-09-19T11:14:54;31.60;86.50
63771;DHT22;60282;43.862;18.430;2023-09-19T11:30:49;32.10;84.00
63771;DHT22;60282;43.862;18.430;2023-09-19T11:33:22;32.40;82.80
63771;DHT22;60282;43.862;18.430;2023-09-19T11:36:11;32.30;79.70
63771;DHT22;60282;43.862;18.430;2023-09-19T11:46:30;32.20;76.50
63771;DHT22;60282;43.862;18.430;2023-09-19T11:49:06;32.20;75.20
63771;DHT22;60282;43.862;18.430;2023-09-19T11:51:45;32.20;75.80
63771;DHT22;60282;43.862;18.430;2023-09-19T11:54:14;32.20;75.40
63771;DHT22;60282;43.862;18.430;2023-09-19T11:56:51;32.30;75.60
63771;DHT22;60282;43.862;18.430;2023-09-19T12:01:52;32.40;74.00
63771;DHT22;60282;43.862;18.430;2023-09-19T12:04:37;32.30;71.50
63771;DHT22;60282;43.862;18.430;2023-09-19T12:07:08;32.50;70.40
63771;DHT22;60282;43.862;18.430;2023-09-19T12:09:41;32.70;70.60
63771;DHT22;60282;43.862;18.430;2023-09-19T12:12:10;33.00;70.50
63771;DHT22;60282;43.862;18.430;2023-09-19T12:14:39;32.90;70.60
63771;DHT22;60282;43.862;18.430;2023-09-19T12:17:07;32.80;70.10
63771;DHT22;60282;43.862;18.430;2023-09-19T12:19:33;32.80;70.20
63771;DHT22;60282;43.862;18.430;2023-09-19T12:21:59;32.10;69.40
63771;DHT22;60282;43.862;18.430;2023-09-19T12:24:33;32.90;69.10
63771;DHT22;60282;43.862;18.430;2023-09-19T12:27:05;32.80;69.80
63771;DHT22;60282;43.862;18.430;2023-09-19T12:29:42;32.60;68.20
63771;DHT22;60282;43.862;18.430;2023-09-19T12:32:08;32.80;68.30
63771;DHT22;60282;43.862;18.430;2023-09-19T12:34:34;32.60;68.30
63771;DHT22;60282;43.862;18.430;2023-09-19T12:39:52;31.00;67.00
63771;DHT22;60282;43.862;18.430;2023-09-19T12:42:27;32.70;67.80
63771;DHT22;60282;43.862;18.430;2023-09-19T12:45:01;32.60;67.30
63771;DHT22;60282;43.862;18.430;2023-09-19T12:47:28;32.80;66.80
63771;DHT22;60282;43.862;18.430;2023-09-19T12:50:15;32.80;67.50
63771;DHT22;60282;43.862;18.430;2023-09-19T12:52:53;32.90;67.40
63771;DHT22;60282;43.862;18.430;2023-09-19T12:55:31;32.80;67.90
63771;DHT22;60282;43.862;18.430;2023-09-19T12:58:12;32.70;67.70
63771;DHT22;60282;43.862;18.430;2023-09-19T13:00:41;32.90;67.80
63771;DHT22;60282;43.862;18.430;2023-09-19T13:03:16;33.30;67.70
63771;DHT22;60282;43.862;18.430;2023-09-19T13:06:03;32.40;67.30
63771;DHT22;60282;43.862;18.430;2023-09-19T13:08:34;33.10;71.30
63771;DHT22;60282;43.862;18.430;2023-09-19T13:11:17;32.10;71.00
63771;DHT22;60282;43.862;18.430;2023-09-19T13:14:13;33.30;72.40
63771;DHT22;60282;43.862;18.430;2023-09-19T13:17:03;33.20;71.50
63771;DHT22;60282;43.862;18.430;2023-09-19T13:25:16;31.70;78.10
63771;DHT22;60282;43.862;18.430;2023-09-19T13:27:48;31.40;75.80
63771;DHT22;60282;43.862;18.430;2023-09-19T13:30:20;30.50;77.20
63771;DHT22;60282;43.862;18.430;2023-09-19T13:32:46;30.80;79.20
63771;DHT22;60282;43.862;18.430;2023-09-19T13:35:15;30.50;79.50
63771;DHT22;60282;43.862;18.430;2023-09-19T13:37:42;30.10;81.40
63771;DHT22;60282;43.862;18.430;2023-09-19T13:40:10;30.00;80.30
63771;DHT22;60282;43.862;18.430;2023-09-19T13:42:36;29.80;81.50
63771;DHT22;60282;43.862;18.430;2023-09-19T13:45:03;29.80;81.70
63771;DHT22;60282;43.862;18.430;2023-09-19T13:47:36;29.60;82.60
63771;DHT22;60282;43.862;18.430;2023-09-19T13:50:04;29.60;83.20
63771;DHT22;60282;43.862;18.430;2023-09-19T13:52:31;29.60;84.60
63771;DHT22;60282;43.862;18.430;2023-09-19T13:54:57;29.70;84.70
63771;DHT22;60282;43.862;18.430;2023-09-19T13:57:24;30.00;84.10
63771;DHT22;60282;43.862;18.430;2023-09-19T13:59:50;30.70;82.40
63771;DHT22;60282;43.862;18.430;2023-09-19T14:02:17;31.50;82.50
63771;DHT22;60282;43.862;18.430;2023-09-19T14:04:48;32.50;81.20
63771;DHT22;60282;43.862;18.430;2023-09-19T14:07:15;33.40;78.70
63771;DHT22;60282;43.862;18.430;2023-09-19T14:09:41;33.90;76.60
63771;DHT22;60282;43.862;18.430;2023-09-19T14:12:07;34.70;76.40
63771;DHT22;60282;43.862;18.430;2023-09-19T14:14:33;35.50;75.30
63771;DHT22;60282;43.862;18.430;2023-09-19T14:16:59;35.50;73.70
63771;DHT22;60282;43.862;18.430;2023-09-19T14:19:29;36.00;71.00
63771;DHT22;60282;43.862;18.430;2023-09-19T14:21:54;36.60;69.90
63771;DHT22;60282;43.862;18.430;2023-09-19T14:24:23;35.80;69.70
63771;DHT22;60282;43.862;18.430;2023-09-19T14:26:49;36.70;71.00
63771;DHT22;60282;43.862;18.430;2023-09-19T14:29:16;37.20;68.10
63771;DHT22;60282;43.862;18.430;2023-09-19T14:31:42;37.50;67.30
63771;DHT22;60282;43.862;18.430;2023-09-19T14:34:08;37.50;66.60
63771;DHT22;60282;43.862;18.430;2023-09-19T14:36:38;37.10;65.90
63771;DHT22;60282;43.862;18.430;2023-09-19T14:39:07;36.40;65.50
63771;DHT22;60282;43.862;18.430;2023-09-19T14:41:34;33.20;64.90
63771;DHT22;60282;43.862;18.430;2023-09-19T14:44:02;36.10;67.00
63771;DHT22;60282;43.862;18.430;2023-09-19T14:46:29;36.20;67.00
63771;DHT22;60282;43.862;18.430;2023-09-19T14:48:56;36.20;66.10
63771;DHT22;60282;43.862;18.430;2023-09-19T14:51:25;35.80;65.90
63771;DHT22;60282;43.862;18.430;2023-09-19T14:53:53;35.80;67.80
63771;DHT22;60282;43.862;18.430;2023-09-19T14:56:19;35.70;67.10
63771;DHT22;60282;43.862;18.430;2023-09-19T14:58:46;35.70;68.40
63771;DHT22;60282;43.862;18.430;2023-09-19T15:01:13;35.70;67.30
63771;DHT22;60282;43.862;18.430;2023-09-19T15:03:40;35.50;70.00
63771;DHT22;60282;43.862;18.430;2023-09-19T15:06:09;35.40;69.90
63771;DHT22;60282;43.862;18.430;2023-09-19T15:08:38;34.90;69.80
63771;DHT22;60282;43.862;18.430;2023-09-19T15:11:04;34.60;72.00
63771;DHT22;60282;43.862;18.430;2023-09-19T15:13:34;34.00;71.10
63771;DHT22;60282;43.862;18.430;2023-09-19T15:16:01;34.00;71.70
63771;DHT22;60282;43.862;18.430;2023-09-19T15:18:28;34.30;69.40
63771;DHT22;60282;43.862;18.430;2023-09-19T15:20:57;34.70;69.20
63771;DHT22;60282;43.862;18.430;2023-09-19T15:23:22;35.00;69.00
63771;DHT22;60282;43.862;18.430;2023-09-19T15:25:49;34.70;70.10
63771;DHT22;60282;43.862;18.430;2023-09-19T15:28:15;34.40;70.10
63771;DHT22;60282;43.862;18.430;2023-09-19T15:30:41;33.70;73.20
63771;DHT22;60282;43.862;18.430;2023-09-19T15:33:07;31.30;75.60
63771;DHT22;60282;43.862;18.430;2023-09-19T15:35:33;30.00;80.40
63771;DHT22;60282;43.862;18.430;2023-09-19T15:37:58;29.10;81.40
63771;DHT22;60282;43.862;18.430;2023-09-19T15:40:26;28.20;83.70
63771;DHT22;60282;43.862;18.430;2023-09-19T15:42:54;27.60;84.60
63771;DHT22;60282;43.862;18.430;2023-09-19T15:45:20;30.60;88.70
63771;DHT22;60282;43.862;18.430;2023-09-19T15:47:46;26.80;89.10
63771;DHT22;60282;43.862;18.430;2023-09-19T15:50:11;26.40;90.00
63771;DHT22;60282;43.862;18.430;2023-09-19T15:52:41;25.90;91.20
63771;DHT22;60282;43.862;18.430;2023-09-19T15:55:07;25.60;93.00
63771;DHT22;60282;43.862;18.430;2023-09-19T15:57:37;24.40;93.70
63771;DHT22;60282;43.862;18.430;2023-09-19T16:00:04;26.80;95.40
63771;DHT22;60282;43.862;18.430;2023-09-19T16:02:36;25.30;96.20
63771;DHT22;60282;43.862;18.430;2023-09-19T16:05:02;25.10;98.20
63771;DHT22;60282;43.862;18.430;2023-09-19T16:07:32;25.30;98.40
63771;DHT22;60282;43.862;18.430;2023-09-19T16:09:59;25.50;98.80
63771;DHT22;60282;43.862;18.430;2023-09-19T16:12:25;25.70;98.30
63771;DHT22;60282;43.862;18.430;2023-09-19T16:14:51;25.90;98.30
63771;DHT22;60282;43.862;18.430;2023-09-19T16:17:17;26.00;98.00
63771;DHT22;60282;43.862;18.430;2023-09-19T16:19:43;25.80;97.70
63771;DHT22;60282;43.862;18.430;2023-09-19T16:22:10;25.80;97.90
63771;DHT22;60282;43.862;18.430;2023-09-19T16:29:29;25.40;98.80
63771;DHT22;60282;43.862;18.430;2023-09-19T16:31:55;25.30;99.70
63771;DHT22;60282;43.862;18.430;2023-09-19T16:34:21;25.20;99.90
63771;DHT22;60282;43.862;18.430;2023-09-19T16:36:47;25.00;99.90
63771;DHT22;60282;43.862;18.430;2023-09-19T16:41:39;24.70;99.90
63771;DHT22;60282;43.862;18.430;2023-09-19T16:44:07;24.60;99.90